Time;durP1;ratioP1;P1;durP2;ratioP2;P2;SDS_P1;SDS_P2;PMS_P1;PMS_P2;Temp;Humidity;BMP_temperature;BMP_pressure;BME280_temperature;BME280_humidity;BME280_pressure;Samples;Min_cycle;Max_cycle;Signal;HPM_P1;HPM_P2
2022/07/22 00:01:58;;;;;;;14.70;2.78;;;14.60;99.90;;;;;;5042177;28;20017;-78
2022/07/22 00:04:25;;;;;;;10.50;2.70;;;14.70;99.90;;;;;;5030235;28;20184;-80
2022/07/22 00:06:53;;;;;;;13.80;3.03;;;14.80;99.90;;;;;;5041169;28;20035;-79
2022/07/22 00:09:20;;;;;;;12.40;2.00;;;14.80;99.90;;;;;;5039874;28;20060;-80
2022/07/22 00:11:47;;;;;;;9.82;2.28;;;14.90;99.90;;;;;;5040767;28;20037;-78
2022/07/22 00:14:15;;;;;;;12.55;2.80;;;15.00;99.90;;;;;;5038073;28;20846;-78
2022/07/22 00:16:42;;;;;;;10.90;3.20;;;15.10;99.90;;;;;;5039170;28;20211;-79
2022/07/22 00:19:10;;;;;;;13.65;3.95;;;15.10;99.90;;;;;;5038719;28;20052;-79
2022/07/22 00:21:37;;;;;;;12.13;3.13;;;15.20;99.90;;;;;;5038249;28;20762;-78
2022/07/22 00:24:05;;;;;;;16.38;3.50;;;15.20;99.90;;;;;;5038704;28;20116;-79
2022/07/22 00:26:32;;;;;;;12.00;3.72;;;15.40;99.90;;;;;;5037637;28;20025;-79
2022/07/22 00:29:00;;;;;;;9.90;2.78;;;15.50;99.90;;;;;;5038034;28;20079;-77
2022/07/22 00:31:28;;;;;;;9.68;2.67;;;15.70;99.90;;;;;;5039157;28;20067;-78
2022/07/22 00:33:55;;;;;;;8.75;1.73;;;15.80;99.90;;;;;;5039949;28;20033;-78
2022/07/22 00:36:22;;;;;;;6.80;1.70;;;15.80;99.90;;;;;;5041481;28;20017;-78
2022/07/22 00:38:49;;;;;;;7.00;1.42;;;15.90;99.90;;;;;;5039864;28;20029;-76
2022/07/22 00:41:17;;;;;;;8.88;1.63;;;16.10;99.90;;;;;;5038886;28;20091;-77
2022/07/22 00:43:53;;;;;;;5.13;1.35;;;16.20;99.90;;;;;;5039440;28;20036;-79
2022/07/22 00:46:20;;;;;;;8.65;1.42;;;16.40;99.90;;;;;;5042537;28;20033;-80
2022/07/22 00:48:48;;;;;;;6.57;1.38;;;16.50;99.90;;;;;;5047777;28;20025;-80
2022/07/22 00:51:16;;;;;;;5.32;1.00;;;16.60;99.90;;;;;;5039763;28;20108;-80
2022/07/22 00:53:45;;;;;;;7.07;1.15;;;16.60;99.90;;;;;;5044264;28;20465;-82
2022/07/22 00:56:12;;;;;;;7.63;2.00;;;16.70;99.90;;;;;;5060383;28;20024;-82
2022/07/22 00:58:40;;;;;;;7.35;1.95;;;16.80;99.90;;;;;;5040146;28;20039;-82
2022/07/22 01:01:08;;;;;;;5.47;1.30;;;16.80;99.90;;;;;;5039209;28;20029;-83
2022/07/22 01:03:35;;;;;;;8.38;1.73;;;16.80;99.90;;;;;;5044498;28;20020;-80
2022/07/22 01:06:03;;;;;;;7.82;3.08;;;17.00;99.90;;;;;;5042395;28;20029;-80
2022/07/22 01:08:32;;;;;;;8.93;1.33;;;17.20;99.90;;;;;;5039547;28;20100;-79
2022/07/22 01:11:10;;;;;;;9.57;2.22;;;17.40;99.90;;;;;;5039975;28;20053;-81
2022/07/22 01:13:38;;;;;;;11.88;2.67;;;17.60;99.90;;;;;;5039057;28;20036;-79
2022/07/22 01:16:08;;;;;;;8.98;1.60;;;17.80;99.90;;;;;;5071029;28;20021;-81
2022/07/22 01:18:37;;;;;;;7.15;1.33;;;17.70;99.90;;;;;;5038706;28;20116;-79
2022/07/22 01:21:06;;;;;;;5.07;0.85;;;17.60;99.90;;;;;;5039631;28;20019;-80
2022/07/22 01:23:34;;;;;;;5.03;1.10;;;17.60;99.90;;;;;;5038751;28;20017;-80
2022/07/22 01:26:02;;;;;;;11.80;1.60;;;17.60;99.90;;;;;;5040105;28;20535;-80
2022/07/22 01:28:29;;;;;;;7.25;1.65;;;17.60;99.90;;;;;;5040631;28;20029;-77
2022/07/22 01:30:57;;;;;;;10.07;1.50;;;17.60;99.90;;;;;;5038513;28;20029;-81
2022/07/22 01:33:24;;;;;;;7.78;1.60;;;17.60;99.90;;;;;;5040298;28;20123;-81
2022/07/22 01:35:52;;;;;;;12.25;1.70;;;17.60;99.90;;;;;;5039326;28;20020;-80
2022/07/22 01:38:20;;;;;;;12.32;2.83;;;17.70;99.90;;;;;;5039501;28;20053;-82
2022/07/22 01:40:48;;;;;;;9.65;2.10;;;17.80;99.90;;;;;;5037992;28;20048;-80
2022/07/22 01:43:17;;;;;;;8.95;1.35;;;17.80;99.90;;;;;;5039513;28;20051;-79
2022/07/22 01:45:51;;;;;;;8.10;1.30;;;17.90;99.90;;;;;;5045527;28;20029;-80
2022/07/22 01:48:19;;;;;;;6.90;1.40;;;17.90;99.90;;;;;;5038231;28;20021;-80
2022/07/22 01:50:46;;;;;;;9.02;1.60;;;17.90;99.90;;;;;;5047581;28;20033;-80
2022/07/22 01:53:14;;;;;;;4.43;1.30;;;18.00;99.90;;;;;;5038738;28;20405;-80
2022/07/22 01:55:41;;;;;;;7.35;1.80;;;18.00;99.90;;;;;;5044178;28;20028;-80
2022/07/22 01:58:09;;;;;;;6.15;1.30;;;17.90;99.90;;;;;;5045695;28;20032;-80
2022/07/22 02:00:37;;;;;;;7.90;1.63;;;17.90;99.90;;;;;;5056578;28;20029;-82
2022/07/22 02:03:04;;;;;;;8.73;1.48;;;17.90;99.90;;;;;;5029501;28;20021;-80
2022/07/22 02:05:32;;;;;;;7.72;1.67;;;18.00;99.90;;;;;;5036380;28;20111;-78
2022/07/22 02:08:08;;;;;;;11.75;2.20;;;18.20;99.90;;;;;;5041715;28;20021;-80
2022/07/22 02:10:35;;;;;;;6.40;1.42;;;18.40;99.90;;;;;;5042049;28;20037;-79
2022/07/22 02:13:04;;;;;;;7.40;1.52;;;18.50;99.90;;;;;;5041614;28;20060;-80
2022/07/22 02:15:32;;;;;;;6.15;1.65;;;18.60;99.90;;;;;;5041632;28;20032;-79
2022/07/22 02:17:59;;;;;;;7.95;1.67;;;18.60;99.90;;;;;;5042100;28;20056;-79
2022/07/22 02:20:26;;;;;;;7.50;1.38;;;18.60;99.90;;;;;;5042999;28;20017;-79
2022/07/22 02:22:54;;;;;;;8.80;1.48;;;18.80;99.90;;;;;;5042187;28;20037;-79
2022/07/22 02:25:21;;;;;;;9.88;2.05;;;18.60;99.90;;;;;;5042545;28;20079;-77
2022/07/22 02:27:48;;;;;;;9.15;1.35;;;18.50;99.90;;;;;;5041963;28;20021;-78
2022/07/22 02:30:16;;;;;;;6.65;1.60;;;18.40;99.90;;;;;;5039708;28;20489;-77
2022/07/22 02:32:43;;;;;;;5.22;1.13;;;18.30;99.90;;;;;;5042123;28;20425;-76
2022/07/22 02:35:11;;;;;;;9.57;1.55;;;18.10;99.90;;;;;;5041256;28;20025;-78
2022/07/22 02:37:38;;;;;;;9.00;1.55;;;17.90;99.90;;;;;;5040840;28;20036;-78
2022/07/22 02:40:07;;;;;;;8.02;1.70;;;17.70;99.90;;;;;;5041714;28;20504;-78
2022/07/22 02:42:34;;;;;;;9.25;2.22;;;17.60;99.90;;;;;;5041419;28;20040;-77
2022/07/22 02:45:03;;;;;;;8.00;1.77;;;17.60;99.90;;;;;;5040628;28;20342;-79
2022/07/22 02:47:30;;;;;;;7.35;1.95;;;17.60;99.90;;;;;;5042050;28;20116;-78
2022/07/22 02:49:58;;;;;;;6.90;1.48;;;17.50;99.90;;;;;;5040266;28;20032;-80
2022/07/22 02:52:25;;;;;;;9.70;1.67;;;17.40;99.90;;;;;;5042201;28;20087;-79
2022/07/22 02:54:52;;;;;;;8.75;2.40;;;17.10;99.90;;;;;;5038784;28;20021;-81
2022/07/22 02:57:19;;;;;;;13.05;2.88;;;16.80;99.90;;;;;;5044397;28;20032;-82
2022/07/22 02:59:47;;;;;;;8.23;1.55;;;16.50;99.90;;;;;;5053271;28;20017;-80
2022/07/22 03:02:14;;;;;;;6.95;1.80;;;16.20;99.90;;;;;;5061652;28;20176;-80
2022/07/22 03:04:41;;;;;;;10.23;2.13;;;16.20;99.90;;;;;;5060835;28;20052;-81
2022/07/22 03:07:09;;;;;;;13.55;2.60;;;16.10;99.90;;;;;;5060722;28;20032;-81
2022/07/22 03:09:36;;;;;;;6.45;1.90;;;16.20;99.90;;;;;;5061298;28;20840;-80
2022/07/22 03:12:03;;;;;;;8.68;2.15;;;16.20;99.90;;;;;;5048705;28;20021;-81
2022/07/22 03:14:31;;;;;;;6.68;1.30;;;16.20;99.90;;;;;;5041717;28;20064;-76
2022/07/22 03:16:58;;;;;;;5.07;1.25;;;16.10;99.90;;;;;;5057819;28;20020;-77
2022/07/22 03:19:25;;;;;;;5.40;1.65;;;15.90;99.90;;;;;;5060985;28;20029;-78
2022/07/22 03:21:52;;;;;;;10.38;1.50;;;15.60;99.90;;;;;;5060548;28;20791;-77
2022/07/22 03:24:20;;;;;;;7.03;1.40;;;15.30;99.90;;;;;;5075945;28;20037;-78
2022/07/22 03:26:47;;;;;;;13.07;2.97;;;15.20;99.90;;;;;;5060970;28;20051;-76
2022/07/22 03:29:14;;;;;;;14.32;2.92;;;15.10;99.90;;;;;;5060345;28;20039;-79
2022/07/22 03:31:42;;;;;;;12.95;3.33;;;15.10;99.90;;;;;;5045079;28;20512;-78
2022/07/22 03:34:09;;;;;;;14.05;3.47;;;15.00;99.90;;;;;;5051057;28;20370;-78
2022/07/22 03:36:37;;;;;;;14.30;4.70;;;15.00;99.90;;;;;;5060771;28;20028;-76
2022/07/22 03:39:04;;;;;;;9.48;2.28;;;15.00;99.90;;;;;;5059627;28;20025;-76
2022/07/22 03:41:31;;;;;;;9.90;2.53;;;15.00;99.90;;;;;;5041020;28;20036;-76
2022/07/22 03:43:59;;;;;;;10.18;3.28;;;15.10;99.90;;;;;;5039471;28;20385;-78
2022/07/22 03:46:26;;;;;;;12.18;1.75;;;15.00;99.90;;;;;;5045315;28;20112;-78
2022/07/22 03:48:53;;;;;;;10.95;2.10;;;15.20;99.90;;;;;;5057539;28;20370;-78
2022/07/22 03:51:21;;;;;;;13.18;2.30;;;15.20;99.90;;;;;;5042428;28;20479;-76
2022/07/22 03:53:48;;;;;;;10.02;2.75;;;15.30;99.90;;;;;;5064630;28;20033;-76
2022/07/22 03:56:15;;;;;;;7.47;1.85;;;15.30;99.90;;;;;;5019561;28;20025;-77
2022/07/22 03:58:43;;;;;;;9.52;1.95;;;15.40;99.90;;;;;;5055488;28;20025;-77
2022/07/22 04:01:10;;;;;;;5.93;1.90;;;15.40;99.90;;;;;;5053806;28;20025;-79
2022/07/22 04:03:38;;;;;;;10.35;1.95;;;15.40;99.90;;;;;;5054783;28;20070;-77
2022/07/22 04:06:06;;;;;;;10.23;2.00;;;15.40;99.90;;;;;;5056459;28;20020;-76
2022/07/22 04:08:33;;;;;;;10.07;2.55;;;15.40;99.90;;;;;;5059775;28;20106;-77
2022/07/22 04:11:01;;;;;;;7.40;1.90;;;15.40;99.90;;;;;;5060433;28;20036;-76
2022/07/22 04:13:28;;;;;;;10.77;2.25;;;15.40;99.90;;;;;;5049346;28;20091;-76
2022/07/22 04:15:55;;;;;;;7.97;2.67;;;15.40;99.90;;;;;;5039938;28;20032;-79
2022/07/22 04:18:23;;;;;;;11.20;3.13;;;15.40;99.90;;;;;;5039056;28;20521;-77
2022/07/22 04:20:50;;;;;;;7.72;1.88;;;15.40;99.90;;;;;;5039041;28;20029;-76
2022/07/22 04:23:18;;;;;;;8.35;2.25;;;15.50;99.90;;;;;;5042890;28;20381;-78
2022/07/22 04:25:46;;;;;;;11.50;2.50;;;15.50;99.90;;;;;;5075223;28;20020;-78
2022/07/22 04:28:13;;;;;;;8.73;2.50;;;15.50;99.90;;;;;;5059843;28;20588;-79
2022/07/22 04:30:40;;;;;;;10.40;2.78;;;15.50;99.90;;;;;;5058895;28;20376;-77
2022/07/22 04:33:08;;;;;;;9.63;2.15;;;15.40;99.90;;;;;;5058864;28;20024;-79
2022/07/22 04:35:35;;;;;;;5.53;1.33;;;15.40;99.90;;;;;;5060040;28;20020;-79
2022/07/22 04:38:02;;;;;;;7.82;2.05;;;15.50;99.90;;;;;;5045398;28;20109;-78
2022/07/22 04:40:30;;;;;;;7.38;2.40;;;15.40;99.90;;;;;;5039818;28;20021;-79
2022/07/22 04:42:57;;;;;;;5.63;1.52;;;15.40;99.90;;;;;;5068473;28;20041;-76
2022/07/22 04:45:24;;;;;;;11.35;2.53;;;15.40;99.90;;;;;;5038680;28;20043;-76
2022/07/22 04:47:52;;;;;;;16.65;4.55;;;15.30;99.90;;;;;;5039571;28;20047;-78
2022/07/22 04:50:19;;;;;;;15.40;2.95;;;15.30;99.90;;;;;;5039676;28;20021;-78
2022/07/22 04:52:47;;;;;;;12.90;2.63;;;15.20;99.90;;;;;;5039258;28;20090;-77
2022/07/22 04:55:14;;;;;;;17.08;3.67;;;15.20;99.90;;;;;;5059483;28;20020;-77
2022/07/22 04:57:41;;;;;;;19.48;3.55;;;15.10;99.90;;;;;;5054839;28;20021;-77
2022/07/22 05:00:09;;;;;;;18.52;3.85;;;15.00;99.90;;;;;;5070626;28;20032;-76
2022/07/22 05:02:36;;;;;;;19.92;4.20;;;15.00;99.90;;;;;;5039675;28;20021;-75
2022/07/22 05:05:03;;;;;;;16.13;3.40;;;14.90;99.90;;;;;;5042586;28;20115;-75
2022/07/22 05:07:31;;;;;;;15.82;2.40;;;14.80;99.90;;;;;;5047680;28;20025;-78
2022/07/22 05:09:58;;;;;;;9.65;2.05;;;14.80;99.90;;;;;;5039071;28;20025;-78
2022/07/22 05:12:25;;;;;;;16.48;3.55;;;14.90;99.90;;;;;;5039280;28;20048;-78
2022/07/22 05:14:53;;;;;;;16.13;2.70;;;14.90;99.90;;;;;;5071129;28;20513;-78
2022/07/22 05:17:20;;;;;;;15.55;3.28;;;15.00;99.90;;;;;;5039574;28;20025;-79
2022/07/22 05:19:47;;;;;;;12.50;3.55;;;15.00;99.90;;;;;;5041809;28;20040;-78
2022/07/22 05:22:15;;;;;;;18.17;3.40;;;15.00;99.90;;;;;;5024108;28;20033;-79
2022/07/22 05:24:43;;;;;;;13.15;3.03;;;15.00;99.90;;;;;;5033838;28;20079;-76
2022/07/22 05:27:10;;;;;;;12.85;3.00;;;15.00;99.90;;;;;;5039875;28;20021;-78
2022/07/22 05:29:38;;;;;;;15.77;3.00;;;15.10;99.90;;;;;;5040388;28;20108;-79
2022/07/22 05:32:05;;;;;;;14.35;2.55;;;15.10;99.90;;;;;;5038839;28;20025;-77
2022/07/22 05:34:32;;;;;;;15.80;2.75;;;15.10;99.90;;;;;;5041647;28;20052;-79
2022/07/22 05:37:00;;;;;;;11.77;2.60;;;15.10;99.90;;;;;;5061342;28;20020;-77
2022/07/22 05:39:27;;;;;;;11.27;2.88;;;15.10;99.90;;;;;;5062499;28;20090;-78
2022/07/22 05:41:54;;;;;;;12.93;1.98;;;15.10;99.90;;;;;;5055126;28;20037;-79
2022/07/22 05:44:22;;;;;;;19.73;2.92;;;15.10;99.90;;;;;;5036211;28;20072;-78
2022/07/22 05:46:49;;;;;;;21.00;3.42;;;15.10;99.90;;;;;;5038208;28;20916;-80
2022/07/22 05:49:16;;;;;;;9.07;2.58;;;15.20;99.90;;;;;;5037008;28;20527;-77
2022/07/22 05:51:43;;;;;;;15.55;1.83;;;15.20;99.90;;;;;;5041648;28;20037;-78
2022/07/22 05:54:11;;;;;;;13.27;2.67;;;15.20;99.90;;;;;;5041924;28;20068;-76
2022/07/22 05:56:38;;;;;;;14.82;2.88;;;15.20;99.90;;;;;;5041564;28;20017;-76
2022/07/22 05:59:05;;;;;;;10.98;2.47;;;15.30;99.90;;;;;;5042740;28;20092;-75
2022/07/22 06:01:32;;;;;;;8.23;2.17;;;15.20;99.90;;;;;;5039795;28;20100;-79
2022/07/22 06:04:00;;;;;;;17.67;2.65;;;15.20;99.90;;;;;;5039067;28;20533;-80
2022/07/22 06:06:27;;;;;;;19.15;3.55;;;15.20;99.90;;;;;;5042330;28;20021;-80
2022/07/22 06:08:54;;;;;;;26.83;6.60;;;15.10;99.90;;;;;;5038533;28;20017;-79
2022/07/22 06:11:22;;;;;;;14.55;2.92;;;15.10;99.90;;;;;;5040044;28;20028;-79
2022/07/22 06:13:49;;;;;;;17.35;3.60;;;15.00;99.90;;;;;;5041824;28;20052;-80
2022/07/22 06:16:17;;;;;;;15.85;3.17;;;15.00;99.90;;;;;;5042077;28;20028;-79
2022/07/22 06:18:44;;;;;;;12.35;2.65;;;15.00;99.90;;;;;;5040582;28;20013;-80
2022/07/22 06:21:11;;;;;;;7.68;2.47;;;15.00;99.90;;;;;;5040878;28;20505;-79
2022/07/22 06:23:38;;;;;;;10.48;2.50;;;15.00;99.90;;;;;;5039987;28;20466;-81
2022/07/22 06:26:06;;;;;;;9.60;2.60;;;15.10;99.90;;;;;;5040477;28;20021;-80
2022/07/22 06:28:33;;;;;;;11.88;2.03;;;15.00;99.90;;;;;;5041274;28;20032;-80
2022/07/22 06:31:00;;;;;;;10.02;2.08;;;15.00;99.90;;;;;;5042015;28;20025;-81
2022/07/22 06:33:28;;;;;;;6.15;1.63;;;15.00;99.90;;;;;;5040973;28;20037;-81
2022/07/22 06:35:55;;;;;;;10.63;2.53;;;15.10;99.90;;;;;;5041033;28;20094;-80
2022/07/22 06:38:23;;;;;;;12.20;2.20;;;15.00;99.90;;;;;;5042101;28;20074;-79
2022/07/22 06:40:50;;;;;;;12.02;2.30;;;15.00;99.90;;;;;;5041278;28;20017;-79
2022/07/22 06:43:17;;;;;;;10.13;2.50;;;15.00;99.90;;;;;;5040060;28;20068;-80
2022/07/22 06:45:45;;;;;;;12.15;2.05;;;15.00;99.90;;;;;;5039911;28;20025;-80
2022/07/22 06:48:12;;;;;;;9.48;1.80;;;15.00;99.90;;;;;;5040880;28;20025;-78
2022/07/22 06:50:39;;;;;;;8.00;1.90;;;15.10;99.90;;;;;;5040757;28;20043;-80
2022/07/22 06:53:07;;;;;;;10.13;2.13;;;15.00;99.90;;;;;;5040586;28;20099;-79
2022/07/22 06:55:34;;;;;;;10.35;1.80;;;14.90;99.90;;;;;;5040560;28;20079;-79
2022/07/22 06:58:01;;;;;;;9.82;2.03;;;14.90;99.90;;;;;;5032025;28;20040;-79
2022/07/22 07:00:29;;;;;;;16.73;2.88;;;14.80;99.90;;;;;;5039581;28;20033;-77
2022/07/22 07:02:59;;;;;;;11.90;3.50;;;14.80;99.90;;;;;;5040436;28;20033;-79
2022/07/22 07:05:28;;;;;;;11.00;2.95;;;14.70;99.90;;;;;;5040732;28;20123;-78
2022/07/22 07:07:56;;;;;;;11.20;2.35;;;14.70;99.90;;;;;;5040626;28;20021;-79
2022/07/22 07:10:24;;;;;;;10.18;1.90;;;14.60;99.90;;;;;;5040580;28;20705;-78
2022/07/22 07:12:55;;;;;;;9.75;1.75;;;14.60;99.90;;;;;;5039682;28;20480;-79
2022/07/22 07:15:22;;;;;;;11.80;2.05;;;14.60;99.90;;;;;;5040294;28;20013;-78
2022/07/22 07:17:50;;;;;;;10.40;2.30;;;14.50;99.90;;;;;;5048491;28;20032;-79
2022/07/22 07:20:18;;;;;;;9.25;2.75;;;14.50;99.90;;;;;;5040836;28;20020;-78
2022/07/22 07:22:45;;;;;;;7.90;1.35;;;14.50;99.90;;;;;;5039679;28;20092;-79
2022/07/22 07:25:13;;;;;;;6.38;1.60;;;14.50;99.90;;;;;;5041085;28;20013;-79
2022/07/22 07:27:41;;;;;;;12.25;3.47;;;14.40;99.90;;;;;;5044750;28;20578;-78
2022/07/22 07:30:09;;;;;;;12.07;2.97;;;14.40;99.90;;;;;;5040676;28;20028;-77
2022/07/22 07:32:37;;;;;;;9.80;2.15;;;14.50;99.90;;;;;;5057184;28;20037;-80
2022/07/22 07:35:06;;;;;;;7.45;1.75;;;14.40;99.90;;;;;;5042514;28;20024;-80
2022/07/22 07:37:33;;;;;;;10.75;2.22;;;14.50;99.90;;;;;;5043714;28;20032;-79
2022/07/22 07:40:01;;;;;;;8.48;2.25;;;14.50;99.90;;;;;;5059892;28;20086;-79
2022/07/22 07:42:28;;;;;;;7.95;1.92;;;14.50;99.90;;;;;;5040048;28;20051;-79
2022/07/22 07:44:56;;;;;;;9.68;2.65;;;14.50;99.90;;;;;;5040715;28;20466;-78
2022/07/22 07:47:23;;;;;;;8.98;2.25;;;14.50;99.90;;;;;;5046976;28;20029;-79
2022/07/22 07:49:51;;;;;;;9.93;2.10;;;14.50;99.90;;;;;;5045444;28;20025;-78
2022/07/22 07:52:18;;;;;;;12.20;3.33;;;14.50;99.90;;;;;;5040353;28;20404;-79
2022/07/22 07:54:47;;;;;;;14.48;2.50;;;14.50;99.90;;;;;;5038958;28;20025;-78
2022/07/22 07:57:15;;;;;;;9.20;2.08;;;14.50;99.90;;;;;;5039190;28;20021;-79
2022/07/22 07:59:42;;;;;;;8.70;2.03;;;14.40;99.90;;;;;;5040073;28;20100;-79
2022/07/22 08:02:10;;;;;;;4.07;1.17;;;14.40;99.90;;;;;;5039963;28;20032;-79
2022/07/22 08:04:37;;;;;;;9.20;2.35;;;14.40;99.90;;;;;;5038692;28;20021;-79
2022/07/22 08:07:06;;;;;;;9.98;1.85;;;14.40;99.90;;;;;;5040883;28;20017;-78
2022/07/22 08:09:37;;;;;;;8.60;1.65;;;14.30;99.90;;;;;;5038945;28;20495;-76
2022/07/22 08:12:05;;;;;;;10.95;1.95;;;14.40;99.90;;;;;;5029865;28;20032;-75
2022/07/22 08:14:33;;;;;;;11.25;2.70;;;14.40;99.90;;;;;;5055934;28;20025;-79
2022/07/22 08:17:02;;;;;;;7.57;2.47;;;14.40;99.90;;;;;;5057712;28;20033;-79
2022/07/22 08:19:29;;;;;;;12.32;2.03;;;14.40;99.90;;;;;;5047595;28;20254;-79
2022/07/22 08:21:57;;;;;;;8.65;1.85;;;14.40;99.90;;;;;;5043009;28;20024;-80
2022/07/22 08:24:24;;;;;;;8.02;2.20;;;14.40;99.90;;;;;;5059093;28;20453;-78
2022/07/22 08:26:51;;;;;;;10.23;1.98;;;14.30;99.90;;;;;;5038851;28;20454;-78
2022/07/22 08:29:19;;;;;;;11.25;3.05;;;14.20;99.90;;;;;;5038423;28;20028;-78
2022/07/22 08:31:46;;;;;;;11.48;3.15;;;14.20;99.90;;;;;;5039582;28;20025;-79
2022/07/22 08:34:14;;;;;;;7.75;2.50;;;14.10;99.90;;;;;;5038358;28;20043;-77
2022/07/22 08:36:41;;;;;;;8.38;1.98;;;14.10;99.90;;;;;;5038147;28;20020;-79
2022/07/22 08:39:09;;;;;;;10.18;2.30;;;14.10;99.90;;;;;;5037335;28;20100;-79
2022/07/22 08:41:41;;;;;;;13.82;1.92;;;14.10;99.90;;;;;;5033159;28;20314;-80
2022/07/22 08:44:09;;;;;;;11.30;1.83;;;14.10;99.90;;;;;;5031612;28;20032;-80
2022/07/22 08:46:37;;;;;;;12.02;1.85;;;14.10;99.90;;;;;;5039282;28;20100;-80
2022/07/22 08:49:06;;;;;;;7.18;2.22;;;14.10;99.90;;;;;;5040964;28;20036;-78
2022/07/22 08:51:36;;;;;;;11.52;2.72;;;14.10;99.90;;;;;;5052617;28;20530;-75
2022/07/22 08:54:04;;;;;;;9.35;3.20;;;14.00;99.90;;;;;;5028895;28;20448;-79
2022/07/22 08:56:31;;;;;;;10.82;3.08;;;14.00;99.90;;;;;;5036374;28;20056;-79
2022/07/22 08:58:58;;;;;;;7.63;2.85;;;13.90;99.90;;;;;;5038441;28;20021;-79
2022/07/22 09:01:26;;;;;;;7.53;2.58;;;13.90;99.90;;;;;;5038573;28;20017;-79
2022/07/22 09:03:55;;;;;;;12.98;3.15;;;13.80;99.90;;;;;;5040602;28;20029;-77
2022/07/22 09:06:33;;;;;;;9.88;4.13;;;13.80;99.90;;;;;;5038931;28;20029;-80
2022/07/22 09:09:02;;;;;;;8.80;2.67;;;13.80;99.90;;;;;;5041923;28;20031;-77
2022/07/22 09:11:31;;;;;;;7.88;3.22;;;13.70;99.90;;;;;;5044820;28;20537;-78
2022/07/22 09:14:00;;;;;;;9.40;3.10;;;13.60;99.90;;;;;;5057200;28;20028;-78
2022/07/22 09:16:45;;;;;;;8.80;2.42;;;13.60;99.90;;;;;;5040499;28;20021;-80
2022/07/22 09:19:12;;;;;;;6.05;2.30;;;13.60;99.90;;;;;;5043100;28;20029;-78
2022/07/22 09:21:47;;;;;;;7.70;2.20;;;13.60;99.90;;;;;;5042159;28;20105;-78
2022/07/22 09:24:46;;;;;;;6.60;1.90;;;13.60;99.90;;;;;;5049251;28;20052;-79
2022/07/22 09:27:24;;;;;;;9.27;2.55;;;13.60;99.90;;;;;;5018010;28;20063;-78
2022/07/22 09:29:53;;;;;;;5.50;2.25;;;13.50;99.90;;;;;;5049150;28;20017;-78
2022/07/22 09:32:21;;;;;;;11.02;2.75;;;13.60;99.90;;;;;;5042618;28;20068;-80
2022/07/22 09:34:48;;;;;;;9.88;2.63;;;13.50;99.90;;;;;;5043373;28;20028;-78
2022/07/22 09:37:16;;;;;;;12.05;3.38;;;13.50;99.90;;;;;;5041893;28;20466;-77
2022/07/22 09:39:43;;;;;;;6.03;2.92;;;13.60;99.90;;;;;;5039468;28;20112;-78
2022/07/22 09:42:10;;;;;;;10.15;3.10;;;13.60;99.90;;;;;;5045066;28;20126;-73
2022/07/22 09:44:38;;;;;;;10.10;3.13;;;13.60;99.90;;;;;;5055724;28;20029;-76
2022/07/22 09:47:05;;;;;;;6.88;2.33;;;13.60;99.90;;;;;;5044441;28;20420;-75
2022/07/22 09:49:35;;;;;;;8.38;2.65;;;13.70;99.90;;;;;;5042514;28;20100;-77
2022/07/22 09:52:04;;;;;;;10.18;2.33;;;13.70;99.90;;;;;;5046985;28;20154;-76
2022/07/22 09:54:32;;;;;;;10.23;2.28;;;13.70;99.90;;;;;;5062821;28;20086;-77
2022/07/22 09:57:00;;;;;;;8.73;3.47;;;13.70;99.90;;;;;;5063268;28;20635;-79
2022/07/22 09:59:27;;;;;;;9.32;5.47;;;13.80;99.90;;;;;;5046194;28;20029;-77
2022/07/22 10:01:58;;;;;;;9.65;3.38;;;13.70;99.90;;;;;;5051698;28;20033;-78
2022/07/22 10:04:28;;;;;;;10.50;4.38;;;13.70;99.90;;;;;;5041154;28;20021;-78
2022/07/22 10:07:00;;;;;;;13.70;4.97;;;13.70;99.90;;;;;;5042034;28;20465;-85
2022/07/22 10:09:28;;;;;;;14.73;4.43;;;13.60;99.90;;;;;;5036563;28;20032;-79
2022/07/22 10:11:56;;;;;;;17.05;3.95;;;13.60;99.90;;;;;;5041039;28;20290;-81
2022/07/22 10:14:24;;;;;;;10.77;3.58;;;13.70;99.90;;;;;;5039611;28;20493;-71
2022/07/22 10:16:51;;;;;;;14.63;5.00;;;13.70;99.90;;;;;;5042267;28;20036;-75
2022/07/22 10:19:19;;;;;;;13.07;4.78;;;13.70;99.90;;;;;;5035026;28;20029;-74
2022/07/22 10:21:46;;;;;;;12.68;3.72;;;13.70;99.90;;;;;;5035900;28;20017;-72
2022/07/22 10:24:18;;;;;;;6.00;2.47;;;13.70;99.90;;;;;;5041185;28;20171;-73
2022/07/22 10:26:57;;;;;;;11.38;2.78;;;13.70;99.90;;;;;;5039058;28;20016;-73
2022/07/22 10:29:44;;;;;;;12.55;2.92;;;13.80;99.90;;;;;;5038666;28;20040;-81
2022/07/22 10:32:17;;;;;;;10.13;2.33;;;13.80;99.90;;;;;;5029262;28;20060;-74
2022/07/22 10:35:06;;;;;;;10.38;3.75;;;13.80;99.90;;;;;;5034233;28;20108;-74
2022/07/22 10:37:43;;;;;;;11.70;4.65;;;13.80;99.90;;;;;;5035085;28;20020;-70
2022/07/22 10:40:29;;;;;;;8.95;2.92;;;13.80;99.90;;;;;;5035129;28;20036;-69
2022/07/22 10:43:08;;;;;;;12.30;3.60;;;13.80;99.90;;;;;;5035510;28;20060;-67
2022/07/22 10:45:39;;;;;;;11.75;2.97;;;13.80;99.90;;;;;;5037167;28;20025;-67
2022/07/22 10:48:09;;;;;;;11.00;1.90;;;13.80;99.90;;;;;;5040801;28;20092;-70
2022/07/22 10:50:39;;;;;;;12.93;2.85;;;13.80;99.90;;;;;;5036861;28;20035;-67
2022/07/22 10:53:09;;;;;;;12.80;3.03;;;13.80;99.90;;;;;;5037998;28;20064;-68
2022/07/22 10:55:38;;;;;;;11.32;3.05;;;13.80;99.90;;;;;;5037578;28;20025;-70
2022/07/22 10:58:33;;;;;;;12.30;3.40;;;13.80;99.90;;;;;;5041148;28;20071;-73
2022/07/22 11:01:02;;;;;;;7.95;2.47;;;13.70;99.90;;;;;;5032620;28;20406;-82
2022/07/22 11:03:31;;;;;;;11.55;2.97;;;13.70;99.90;;;;;;5031197;28;20060;-71
2022/07/22 11:06:14;;;;;;;11.18;3.15;;;13.60;99.90;;;;;;5036061;28;20017;-68
2022/07/22 11:08:42;;;;;;;9.85;2.60;;;13.60;99.90;;;;;;5033299;28;20041;-70
2022/07/22 11:11:09;;;;;;;11.23;2.40;;;13.70;99.90;;;;;;5037986;28;20025;-71
2022/07/22 11:13:39;;;;;;;6.30;2.17;;;13.60;99.90;;;;;;5036717;28;22134;-69
2022/07/22 11:16:15;;;;;;;5.82;2.03;;;13.60;99.90;;;;;;5039100;28;20103;-81
2022/07/22 11:19:02;;;;;;;13.85;4.38;;;13.50;99.90;;;;;;5035336;28;20405;-68
2022/07/22 11:21:34;;;;;;;7.45;3.38;;;13.50;99.90;;;;;;5036284;28;20025;-68
2022/07/22 11:24:04;;;;;;;7.13;2.15;;;13.50;99.90;;;;;;5039231;28;20033;-80
2022/07/22 11:26:51;;;;;;;5.75;1.95;;;13.50;99.90;;;;;;5039877;28;20029;-73
2022/07/22 11:29:39;;;;;;;9.98;2.40;;;13.50;99.90;;;;;;5039534;28;20025;-71
2022/07/22 11:32:43;;;;;;;8.02;2.17;;;13.50;99.90;;;;;;5036123;28;20028;-77
2022/07/22 11:35:32;;;;;;;11.23;3.42;;;13.50;99.90;;;;;;5039274;28;20047;-67
2022/07/22 11:38:17;;;;;;;8.35;2.17;;;13.50;99.90;;;;;;5038799;28;20021;-67
2022/07/22 11:41:03;;;;;;;5.57;2.40;;;13.50;99.90;;;;;;5037589;28;20021;-67
2022/07/22 11:43:49;;;;;;;9.18;3.67;;;13.50;99.90;;;;;;5046462;28;20047;-66
2022/07/22 11:46:18;;;;;;;6.85;3.47;;;13.50;99.90;;;;;;5040206;28;20029;-69
2022/07/22 11:48:45;;;;;;;9.10;3.17;;;13.50;99.90;;;;;;5039574;28;20478;-67
2022/07/22 11:51:15;;;;;;;9.73;2.53;;;13.40;99.90;;;;;;5040069;28;20029;-67
2022/07/22 11:53:42;;;;;;;10.73;4.15;;;13.40;99.90;;;;;;5038932;28;20044;-68
2022/07/22 11:56:12;;;;;;;7.10;3.00;;;13.40;99.90;;;;;;5038010;28;20024;-67
2022/07/22 11:58:45;;;;;;;8.82;3.53;;;13.30;99.90;;;;;;5038399;28;20033;-70
2022/07/22 12:01:25;;;;;;;10.55;4.25;;;13.30;99.90;;;;;;5039400;28;20025;-67
2022/07/22 12:03:56;;;;;;;12.20;5.35;;;13.40;99.90;;;;;;5038534;28;20377;-68
2022/07/22 12:06:25;;;;;;;8.77;4.63;;;13.40;99.90;;;;;;5040320;28;20090;-67
2022/07/22 12:09:03;;;;;;;9.68;4.13;;;13.40;99.90;;;;;;5038381;28;20416;-73
2022/07/22 12:11:31;;;;;;;8.55;4.03;;;13.40;99.90;;;;;;5038731;28;20029;-82
2022/07/22 12:14:06;;;;;;;11.90;4.75;;;13.30;99.90;;;;;;5039034;28;20037;-71
2022/07/22 12:16:34;;;;;;;10.98;5.63;;;13.30;99.90;;;;;;5040994;28;20021;-73
2022/07/22 12:19:05;;;;;;;14.38;6.13;;;13.30;99.90;;;;;;5039186;28;20029;-74
2022/07/22 12:21:36;;;;;;;12.90;5.47;;;13.30;99.90;;;;;;5040274;28;20082;-78
2022/07/22 12:24:10;;;;;;;9.85;5.40;;;13.40;99.90;;;;;;5038724;28;20052;-69
2022/07/22 12:26:45;;;;;;;18.58;6.15;;;13.30;99.90;;;;;;5039471;28;20082;-81
2022/07/22 12:29:26;;;;;;;13.75;6.68;;;13.30;99.90;;;;;;5027674;28;20505;-83
2022/07/22 12:31:56;;;;;;;22.77;8.00;;;13.20;99.90;;;;;;5038679;28;20091;-80
2022/07/22 12:34:33;;;;;;;10.55;6.70;;;13.20;99.90;;;;;;5035941;28;20025;-73
2022/07/22 12:37:12;;;;;;;10.70;5.40;;;13.20;99.90;;;;;;5045267;28;20438;-70
2022/07/22 12:39:39;;;;;;;13.52;5.65;;;13.20;99.90;;;;;;5019683;28;20430;-73
2022/07/22 12:42:18;;;;;;;10.82;6.05;;;13.30;99.90;;;;;;5033379;28;20120;-69
2022/07/22 12:45:00;;;;;;;11.93;5.93;;;13.20;99.90;;;;;;5037911;28;20033;-83
2022/07/22 12:47:58;;;;;;;15.68;5.95;;;13.30;99.90;;;;;;5037378;28;20052;-79
2022/07/22 12:50:43;;;;;;;13.13;5.03;;;13.20;99.90;;;;;;5037065;28;20084;-81
2022/07/22 12:53:17;;;;;;;13.50;5.95;;;13.30;99.90;;;;;;5037145;28;20033;-70